Time;durP1;ratioP1;P1;durP2;ratioP2;P2;SDS_P1;SDS_P2;PMS_P1;PMS_P2;Temp;Humidity;BMP_temperature;BMP_pressure;BME280_temperature;BME280_humidity;BME280_pressure;Samples;Min_cycle;Max_cycle;Signal;HPM_P1;HPM_P2
2021/01/28 00:00:42;;;;;;;35.17;15.85;;;;;;;0.31;74.38;99792.23;1816703;78;26434;-58
2021/01/28 00:03:13;;;;;;;32.63;15.03;;;;;;;0.34;74.41;99793.06;1816609;78;26351;-58
2021/01/28 00:05:43;;;;;;;29.23;13.85;;;;;;;0.36;74.43;99786.16;1816886;78;25725;-59
2021/01/28 00:08:11;;;;;;;31.73;15.23;;;;;;;0.36;74.44;99784.30;1816729;78;25925;-62
2021/01/28 00:10:38;;;;;;;30.40;13.55;;;;;;;0.39;74.49;99782.97;1816497;78;25748;-63
2021/01/28 00:13:07;;;;;;;28.95;14.75;;;;;;;0.40;74.55;99767.30;1816342;78;25733;-63
2021/01/28 00:15:36;;;;;;;29.52;14.75;;;;;;;0.40;74.56;99758.52;1816615;78;25754;-64
2021/01/28 00:18:06;;;;;;;29.80;14.68;;;;;;;0.39;74.65;99761.69;1816504;78;25709;-54
2021/01/28 00:20:38;;;;;;;34.92;15.50;;;;;;;0.39;74.54;99752.38;1816448;78;26744;-63
2021/01/28 00:23:06;;;;;;;34.98;16.40;;;;;;;0.40;74.74;99759.84;1816585;78;25646;-56
2021/01/28 00:25:34;;;;;;;35.85;14.80;;;;;;;0.39;74.86;99750.25;1816684;78;25669;-57
2021/01/28 00:28:04;;;;;;;29.77;16.37;;;;;;;0.40;74.76;99750.53;1817033;78;25721;-55
2021/01/28 00:30:38;;;;;;;37.60;17.30;;;;;;;0.40;74.78;99749.20;1816877;78;26262;-64
2021/01/28 00:33:07;;;;;;;34.78;17.50;;;;;;;0.41;74.87;99755.61;1816712;78;26158;-62
2021/01/28 00:35:38;;;;;;;36.50;17.03;;;;;;;0.45;75.22;99756.69;1816900;78;25862;-62
2021/01/28 00:38:09;;;;;;;33.53;16.50;;;;;;;0.49;75.24;99756.44;1816699;78;25684;-59
2021/01/28 00:40:36;;;;;;;29.75;14.13;;;;;;;0.52;75.24;99757.80;1816622;78;25575;-63
2021/01/28 00:43:03;;;;;;;27.95;13.38;;;;;;;0.51;75.09;99749.53;1816836;78;25735;-61
2021/01/28 00:45:32;;;;;;;33.60;15.15;;;;;;;0.50;75.10;99747.95;1816615;78;26003;-67
2021/01/28 00:48:00;;;;;;;32.70;15.47;;;;;;;0.49;75.24;99755.11;1816818;78;25717;-67
2021/01/28 00:50:30;;;;;;;30.95;14.65;;;;;;;0.48;75.26;99749.53;1816607;78;25742;-66
2021/01/28 00:52:58;;;;;;;28.95;14.60;;;;;;;0.51;75.41;99750.86;1816666;78;25661;-67
2021/01/28 00:55:26;;;;;;;34.65;14.65;;;;;;;0.53;75.34;99758.09;1816671;78;25815;-67
2021/01/28 00:57:53;;;;;;;29.52;13.25;;;;;;;0.56;75.43;99757.55;1816731;78;26736;-63
2021/01/28 01:00:34;;;;;;;27.22;15.25;;;;;;;0.58;75.34;99765.28;1816509;78;25782;-56
2021/01/28 01:03:01;;;;;;;27.05;13.43;;;;;;;0.59;75.32;99757.59;1816701;78;25722;-61
2021/01/28 01:05:32;;;;;;;27.65;13.13;;;;;;;0.58;75.23;99744.00;1816659;78;25564;-58
2021/01/28 01:08:01;;;;;;;29.35;13.75;;;;;;;0.57;75.18;99741.08;1816721;78;25647;-57
2021/01/28 01:10:42;;;;;;;27.62;13.68;;;;;;;0.55;75.23;99738.67;1816874;78;26662;-59
2021/01/28 01:13:14;;;;;;;31.17;13.18;;;;;;;0.57;75.20;99733.89;1823173;78;25626;-53
2021/01/28 01:15:42;;;;;;;31.85;14.68;;;;;;;0.58;75.21;99731.51;1825844;78;25662;-59
2021/01/28 01:18:11;;;;;;;33.83;14.58;;;;;;;0.61;75.24;99734.97;1825664;78;25581;-49
2021/01/28 01:20:38;;;;;;;28.87;14.28;;;;;;;0.62;75.21;99737.13;1826108;78;25685;-52
2021/01/28 01:23:04;;;;;;;34.30;15.38;;;;;;;0.61;75.21;99737.62;1825989;78;25682;-57
2021/01/28 01:25:31;;;;;;;28.65;13.80;;;;;;;0.61;75.27;99740.83;1825883;78;25715;-59
2021/01/28 01:27:59;;;;;;;32.38;14.28;;;;;;;0.60;75.26;99733.38;1825943;78;25769;-61
2021/01/28 01:30:27;;;;;;;27.00;13.80;;;;;;;0.59;75.21;99727.77;1825919;78;25728;-58
2021/01/28 01:32:53;;;;;;;28.50;13.08;;;;;;;0.57;75.21;99723.24;1825841;78;25717;-57
2021/01/28 01:35:23;;;;;;;31.62;13.35;;;;;;;0.55;75.23;99720.04;1825953;78;25892;-57
2021/01/28 01:37:51;;;;;;;32.85;14.95;;;;;;;0.55;75.31;99722.16;1825970;78;34829;-57
2021/01/28 01:40:24;;;;;;;29.87;13.63;;;;;;;0.54;75.29;99722.42;1826263;78;26303;-57
2021/01/28 01:42:51;;;;;;;27.20;14.98;;;;;;;0.55;75.37;99717.38;1824562;78;26188;-56
2021/01/28 01:45:29;;;;;;;38.83;17.27;;;;;;;0.57;75.30;99716.59;1825910;78;25713;-45
2021/01/28 01:48:10;;;;;;;35.20;17.35;;;;;;;0.57;75.22;99715.80;1825872;78;26267;-57
2021/01/28 01:50:46;;;;;;;35.73;15.30;;;;;;;0.58;75.41;99717.38;1825852;78;26188;-53
2021/01/28 01:53:21;;;;;;;30.95;15.08;;;;;;;0.56;75.46;99716.30;1826004;78;26250;-54
2021/01/28 01:55:56;;;;;;;38.05;16.97;;;;;;;0.54;75.46;99709.11;1824253;78;25684;-54
2021/01/28 01:58:34;;;;;;;37.25;16.80;;;;;;;0.55;75.50;99707.53;1809829;78;25844;-57
2021/01/28 02:01:01;;;;;;;34.08;16.30;;;;;;;0.56;75.57;99705.66;1825657;78;26343;-57
2021/01/28 02:03:31;;;;;;;42.58;18.55;;;;;;;0.57;75.58;99705.94;1797997;78;25693;-56
2021/01/28 02:06:18;;;;;;;37.35;19.23;;;;;;;0.55;75.51;99703.53;1826011;78;25597;-54
2021/01/28 02:08:51;;;;;;;35.30;17.00;;;;;;;0.55;75.58;99697.42;1825857;78;25661;-56
2021/01/28 02:11:19;;;;;;;37.45;17.15;;;;;;;0.52;75.76;99690.73;1825995;78;25724;-57
2021/01/28 02:13:48;;;;;;;39.35;18.07;;;;;;;0.52;75.68;99685.95;1825912;78;26392;-56
2021/01/28 02:16:19;;;;;;;38.23;17.57;;;;;;;0.53;75.67;99684.36;1825624;78;25610;-56
2021/01/28 02:18:46;;;;;;;37.20;18.07;;;;;;;0.52;75.67;99681.42;1825659;78;25741;-48
2021/01/28 02:21:33;;;;;;;40.05;18.57;;;;;;;0.53;75.60;99683.03;1825839;78;25784;-56
2021/01/28 02:24:12;;;;;;;39.65;18.37;;;;;;;0.52;75.67;99680.63;1825597;78;25644;-45
2021/01/28 02:26:44;;;;;;;37.83;17.75;;;;;;;0.51;75.55;99681.16;1826003;78;25773;-43
2021/01/28 02:29:11;;;;;;;37.13;17.15;;;;;;;0.50;75.53;99672.90;1825575;78;26273;-49
2021/01/28 02:31:41;;;;;;;34.45;15.95;;;;;;;0.48;75.50;99681.67;1825804;78;26308;-57
2021/01/28 02:34:09;;;;;;;38.15;16.55;;;;;;;0.45;75.53;99670.75;1798100;78;25660;-49
2021/01/28 02:36:46;;;;;;;34.90;15.88;;;;;;;0.43;75.65;99680.31;1825811;78;25772;-43
2021/01/28 02:39:18;;;;;;;36.70;16.25;;;;;;;0.43;75.61;99674.20;1825890;78;25770;-43
2021/01/28 10:12:22;;;;;;;13.20;7.47;;;;;;;2.15;59.85;99232.58;1777569;79;35015;-58
2021/01/28 10:14:49;;;;;;;10.15;6.25;;;;;;;2.11;60.09;99229.41;1749721;81;25770;-46
2021/01/28 10:17:15;;;;;;;13.08;7.05;;;;;;;2.16;60.83;99228.03;1720365;81;26171;-59
2021/01/28 10:19:45;;;;;;;15.03;7.60;;;;;;;2.18;59.54;99217.87;1749671;81;25787;-55
2021/01/28 10:22:14;;;;;;;14.63;8.40;;;;;;;2.17;60.05;99214.41;1749373;81;25529;-48
2021/01/28 10:24:41;;;;;;;14.33;7.90;;;;;;;2.17;59.88;99218.96;1749644;81;25786;-49
2021/01/28 10:27:10;;;;;;;13.17;7.87;;;;;;;2.18;60.57;99208.02;1750049;81;25854;-53
2021/01/28 10:29:38;;;;;;;15.00;7.87;;;;;;;2.27;60.04;99207.41;1749334;81;26056;-53
2021/01/28 10:32:11;;;;;;;15.58;8.05;;;;;;;2.33;60.01;99200.39;1749734;81;25742;-51
2021/01/28 10:34:38;;;;;;;13.20;7.10;;;;;;;2.36;59.33;99203.05;1749708;81;26461;-54
2021/01/28 10:37:06;;;;;;;15.38;8.23;;;;;;;2.35;58.81;99186.77;1749607;81;25688;-53
2021/01/28 10:39:33;;;;;;;13.15;7.87;;;;;;;2.36;59.66;99185.16;1749651;81;25876;-45
2021/01/28 10:42:00;;;;;;;13.58;7.75;;;;;;;2.38;59.95;99176.36;1749554;81;26231;-56
2021/01/28 10:44:28;;;;;;;13.35;8.00;;;;;;;2.42;59.76;99167.24;1749595;81;25717;-51
2021/01/28 10:46:56;;;;;;;16.02;8.25;;;;;;;2.45;59.63;99138.63;1749761;81;25721;-52
2021/01/28 10:49:23;;;;;;;12.30;8.23;;;;;;;2.49;59.03;99150.34;1750656;81;25702;-52
2021/01/28 10:51:50;;;;;;;14.43;8.18;;;;;;;2.50;59.13;99139.91;1750282;81;25719;-51
2021/01/28 10:54:18;;;;;;;13.60;8.15;;;;;;;2.51;57.86;99137.51;1750503;81;25779;-51
2021/01/28 10:56:45;;;;;;;13.15;7.92;;;;;;;2.48;58.15;99122.05;1750561;81;25730;-48
2021/01/28 10:59:12;;;;;;;16.12;8.80;;;;;;;2.47;58.71;99112.98;1750794;81;25662;-53
2021/01/28 11:01:39;;;;;;;16.73;8.28;;;;;;;2.51;58.28;99103.35;1749967;81;26320;-51
2021/01/28 11:04:06;;;;;;;12.90;7.45;;;;;;;2.53;57.27;99097.97;1750527;81;25683;-52
2021/01/28 11:06:33;;;;;;;15.40;8.95;;;;;;;2.59;58.37;99095.51;1750776;81;26255;-50
2021/01/28 11:09:00;;;;;;;15.63;9.00;;;;;;;2.58;57.62;99099.80;1750665;81;25711;-52
2021/01/28 11:11:27;;;;;;;13.08;8.25;;;;;;;2.46;56.37;99080.72;1755192;81;25693;-49
2021/01/28 11:13:55;;;;;;;13.13;8.38;;;;;;;2.35;56.48;99077.35;1759330;81;25701;-49
2021/01/28 11:16:27;;;;;;;14.55;7.97;;;;;;;2.28;58.05;99077.69;1759251;81;26267;-48
2021/01/28 11:18:57;;;;;;;18.48;8.35;;;;;;;2.27;57.73;99092.13;1759212;81;25761;-52
2021/01/28 11:21:24;;;;;;;15.53;7.92;;;;;;;2.26;58.48;99081.73;1759465;81;25756;-55
2021/01/28 11:23:51;;;;;;;16.07;8.40;;;;;;;2.23;58.79;99067.88;1758823;81;25675;-52
2021/01/28 11:26:19;;;;;;;16.42;7.90;;;;;;;2.22;57.50;99080.95;1758542;81;25650;-53
2021/01/28 11:28:46;;;;;;;13.35;7.05;;;;;;;2.20;58.41;99060.44;1758796;81;25781;-51
2021/01/28 11:31:14;;;;;;;13.78;8.20;;;;;;;2.18;58.13;99059.12;1758793;81;26685;-53
2021/01/28 11:33:40;;;;;;;13.05;7.55;;;;;;;2.17;58.91;99046.88;1758799;81;25729;-51
2021/01/28 11:36:08;;;;;;;14.90;9.10;;;;;;;2.18;58.14;99056.45;1758795;81;25585;-53
2021/01/28 11:38:35;;;;;;;13.20;8.30;;;;;;;2.07;58.18;99044.32;1758793;81;25652;-49
2021/01/28 11:41:04;;;;;;;18.45;8.80;;;;;;;1.93;58.23;99026.31;1759279;81;25398;-51
2021/01/28 11:43:32;;;;;;;16.05;8.83;;;;;;;1.91;58.84;99023.14;1759790;81;26872;-51
2021/01/28 11:45:59;;;;;;;16.97;9.08;;;;;;;1.95;59.27;99020.70;1759150;81;25608;-53
2021/01/28 11:48:26;;;;;;;15.48;8.75;;;;;;;1.94;58.25;99005.77;1759150;81;25627;-51
2021/01/28 11:50:54;;;;;;;16.57;9.25;;;;;;;1.91;59.50;98996.47;1759098;81;25694;-48
2021/01/28 11:53:21;;;;;;;17.07;8.90;;;;;;;1.89;59.07;98989.30;1759172;81;25654;-47
2021/01/28 11:55:48;;;;;;;20.02;10.65;;;;;;;1.81;58.41;98982.70;1759078;81;25706;-52
2021/01/28 11:58:14;;;;;;;17.87;10.60;;;;;;;1.79;59.06;98979.53;1759048;81;25697;-53
2021/01/28 12:00:42;;;;;;;16.57;9.13;;;;;;;1.82;59.99;98973.63;1759041;81;25591;-49
2021/01/28 12:03:09;;;;;;;18.57;10.93;;;;;;;1.86;59.48;98961.31;1733739;81;25610;-51
2021/01/28 12:05:36;;;;;;;15.35;9.10;;;;;;;1.90;58.78;98954.09;1758826;81;25888;-50
2021/01/28 12:08:03;;;;;;;17.73;10.78;;;;;;;1.84;59.01;98944.02;1758812;81;25756;-50
2021/01/28 12:10:32;;;;;;;19.57;10.82;;;;;;;1.90;59.72;98952.20;1758953;81;25734;-49
2021/01/28 12:13:02;;;;;;;18.48;10.43;;;;;;;1.96;59.59;98948.93;1750757;81;25637;-52
2021/01/28 12:15:29;;;;;;;23.73;12.10;;;;;;;2.01;60.16;98938.20;1750496;81;29954;-51
2021/01/28 12:17:56;;;;;;;18.82;10.23;;;;;;;2.13;60.17;98935.13;1750536;81;25766;-51
2021/01/28 12:20:30;;;;;;;19.70;11.15;;;;;;;2.18;59.08;98933.73;1750438;81;26741;-52
2021/01/28 12:22:58;;;;;;;20.05;10.50;;;;;;;2.15;59.57;98922.32;1750329;81;25646;-50
2021/01/28 12:25:24;;;;;;;20.17;10.95;;;;;;;2.16;59.52;98921.22;1750520;81;25707;-52
2021/01/28 12:27:51;;;;;;;17.73;9.63;;;;;;;2.15;58.82;98906.31;1750471;81;25721;-51
2021/01/28 12:30:22;;;;;;;21.02;11.63;;;;;;;2.23;59.46;98911.80;1750343;81;25704;-52
2021/01/28 12:32:50;;;;;;;23.30;12.03;;;;;;;2.32;58.28;98905.27;1750480;81;25897;-52
2021/01/28 12:35:19;;;;;;;19.15;10.00;;;;;;;2.43;58.41;98905.92;1750234;81;25858;-51
2021/01/28 12:37:47;;;;;;;17.12;10.50;;;;;;;2.55;58.11;98882.25;1750264;81;25734;-52
2021/01/28 12:40:17;;;;;;;22.55;12.73;;;;;;;2.60;56.23;98892.84;1750141;81;25633;-49
2021/01/28 12:42:44;;;;;;;26.07;11.60;;;;;;;2.57;57.43;98887.30;1750409;81;25622;-51
2021/01/28 12:45:12;;;;;;;21.50;12.25;;;;;;;2.63;57.36;98888.03;1750131;81;26843;-49
2021/01/28 12:47:39;;;;;;;20.45;11.75;;;;;;;2.66;56.60;98896.25;1750321;81;25678;-49
2021/01/28 12:50:09;;;;;;;20.52;10.63;;;;;;;2.51;57.68;98893.81;1750308;81;25696;-51
2021/01/28 12:52:38;;;;;;;23.40;11.50;;;;;;;2.37;57.61;98899.08;1750219;81;25666;-50
2021/01/28 12:55:09;;;;;;;22.60;10.93;;;;;;;2.24;58.42;98890.69;1750397;81;25663;-51
2021/01/28 12:57:38;;;;;;;21.90;12.37;;;;;;;2.17;59.27;98889.48;1721835;81;26373;-50
2021/01/28 13:00:09;;;;;;;22.98;12.78;;;;;;;2.10;59.01;98894.38;1750294;81;25726;-49
2021/01/28 13:02:36;;;;;;;23.75;12.53;;;;;;;1.93;58.52;98890.30;1749062;81;25668;-52
2021/01/28 13:05:04;;;;;;;23.05;12.98;;;;;;;1.80;58.93;98897.66;1750123;81;25810;-52
2021/01/28 13:07:31;;;;;;;21.68;11.75;;;;;;;1.70;59.46;98883.12;1750303;81;25643;-51
2021/01/28 13:09:58;;;;;;;20.85;11.75;;;;;;;1.56;59.95;98876.34;1749909;81;26214;-50
2021/01/28 13:12:27;;;;;;;27.93;12.88;;;;;;;1.47;60.07;98870.84;1750047;81;25772;-51
2021/01/28 13:14:54;;;;;;;25.85;12.93;;;;;;;1.38;60.65;98868.02;1750140;81;25672;-50
2021/01/28 13:17:21;;;;;;;21.17;12.75;;;;;;;1.32;61.07;98860.36;1750057;81;25671;-48
2021/01/28 13:19:51;;;;;;;21.12;11.15;;;;;;;1.29;61.65;98853.70;1750359;81;25756;-47
2021/01/28 13:22:18;;;;;;;25.23;12.60;;;;;;;1.25;61.85;98860.69;1750394;81;25703;-47
2021/01/28 13:24:46;;;;;;;24.85;13.15;;;;;;;1.17;62.01;98847.98;1750054;81;25684;-50
2021/01/28 13:27:13;;;;;;;23.57;12.70;;;;;;;1.12;62.21;98848.81;1750060;81;25731;-50
2021/01/28 13:29:40;;;;;;;25.02;13.53;;;;;;;1.06;62.37;98835.31;1750280;81;25639;-48
2021/01/28 13:32:08;;;;;;;26.52;14.23;;;;;;;1.04;62.84;98840.91;1750222;81;25675;-50
2021/01/28 13:34:35;;;;;;;28.12;14.03;;;;;;;0.98;63.12;98823.94;1750178;81;25965;-50
2021/01/28 13:37:03;;;;;;;27.98;14.95;;;;;;;1.01;63.32;98832.15;1750208;81;25840;-49
2021/01/28 13:39:30;;;;;;;24.30;13.85;;;;;;;0.99;63.56;98824.98;1747959;80;25980;-48
2021/01/28 13:41:57;;;;;;;26.73;14.25;;;;;;;0.93;63.87;98818.89;1748250;80;26086;-49
2021/01/28 13:44:24;;;;;;;26.95;15.55;;;;;;;0.90;64.08;98823.98;1748195;82;25624;-49
2021/01/28 13:46:50;;;;;;;27.58;13.32;;;;;;;0.88;64.33;98816.83;1748251;82;25780;-50
2021/01/28 13:49:18;;;;;;;25.50;14.07;;;;;;;0.84;64.62;98823.25;1748202;82;25655;-48
2021/01/28 13:51:45;;;;;;;30.65;14.83;;;;;;;0.83;64.70;98810.22;1748218;82;25604;-49
2021/01/28 13:54:12;;;;;;;31.02;16.73;;;;;;;0.76;65.12;98798.56;1748366;81;25680;-44
2021/01/28 13:56:40;;;;;;;30.70;15.98;;;;;;;0.77;65.35;98806.00;1748157;82;25719;-46
2021/01/28 13:59:07;;;;;;;29.67;15.85;;;;;;;0.76;65.54;98803.89;1748507;82;26730;-49
2021/01/28 14:01:34;;;;;;;32.53;17.00;;;;;;;0.73;65.85;98797.79;1748379;82;25787;-53
2021/01/28 14:04:01;;;;;;;31.85;15.38;;;;;;;0.70;66.03;98799.70;1748172;81;25636;-50
2021/01/28 14:06:28;;;;;;;29.85;15.85;;;;;;;0.68;66.29;98795.17;1748232;82;26197;-45
2021/01/28 14:08:54;;;;;;;33.70;15.60;;;;;;;0.66;66.55;98796.00;1748430;81;25612;-49
2021/01/28 14:11:22;;;;;;;32.00;16.57;;;;;;;0.66;66.95;98805.31;1748324;81;26656;-50
2021/01/28 14:13:50;;;;;;;32.65;16.27;;;;;;;0.62;67.36;98797.09;1748482;81;25659;-51
2021/01/28 14:16:19;;;;;;;32.65;15.32;;;;;;;0.59;67.64;98800.86;1748267;82;25660;-49
2021/01/28 14:18:46;;;;;;;32.17;15.45;;;;;;;0.53;68.18;98794.80;1748474;81;26262;-51
2021/01/28 14:21:13;;;;;;;29.72;16.48;;;;;;;0.48;68.97;98796.95;1748280;81;25656;-49
2021/01/28 14:23:40;;;;;;;33.88;16.90;;;;;;;0.42;69.76;98791.40;1748465;81;26039;-47
2021/01/28 14:26:07;;;;;;;35.98;17.80;;;;;;;0.35;70.29;98798.36;1748297;82;25663;-48
2021/01/28 14:28:35;;;;;;;39.25;18.80;;;;;;;0.31;70.85;98793.90;1748297;82;25596;-52
2021/01/28 14:31:02;;;;;;;36.85;17.62;;;;;;;0.28;70.92;98773.17;1748345;81;26408;-48
2021/01/28 14:33:30;;;;;;;36.10;17.55;;;;;;;0.27;71.17;98779.00;1748479;81;25718;-50
2021/01/28 14:35:57;;;;;;;36.60;18.07;;;;;;;0.23;71.54;98778.53;1747231;81;26113;-51
2021/01/28 14:38:24;;;;;;;33.38;18.17;;;;;;;0.23;71.87;98764.69;1750021;81;25636;-52
2021/01/28 14:40:51;;;;;;;31.48;17.37;;;;;;;0.22;72.39;98755.11;1749796;81;25625;-52
2021/01/28 14:43:20;;;;;;;31.57;17.77;;;;;;;0.21;72.66;98758.86;1750118;81;25617;-52
2021/01/28 14:45:48;;;;;;;31.50;16.25;;;;;;;0.17;72.79;98759.14;1750219;81;25727;-52
2021/01/28 14:48:15;;;;;;;35.43;18.70;;;;;;;0.15;72.95;98754.64;1750085;81;25704;-48
2021/01/28 14:50:42;;;;;;;35.03;19.80;;;;;;;0.11;73.23;98754.40;1749874;81;25804;-52
2021/01/28 14:53:09;;;;;;;36.68;20.48;;;;;;;0.15;73.48;98747.47;1750138;81;26338;-52
2021/01/28 14:55:36;;;;;;;38.25;19.82;;;;;;;0.17;73.84;98752.48;1750012;81;26057;-51
2021/01/28 14:58:05;;;;;;;38.05;19.77;;;;;;;0.14;74.35;98742.43;1750328;81;25809;-53
2021/01/28 15:00:33;;;;;;;41.35;19.98;;;;;;;0.09;74.12;98741.92;1750260;81;26417;-51
2021/01/28 15:03:00;;;;;;;36.53;19.82;;;;;;;0.06;74.15;98736.37;1750155;81;25628;-51
2021/01/28 15:05:27;;;;;;;39.58;19.27;;;;;;;0.05;74.29;98736.10;1750132;81;25674;-53
2021/01/28 15:07:54;;;;;;;37.53;19.42;;;;;;;0.03;74.50;98731.06;1750270;81;25616;-49
2021/01/28 15:10:21;;;;;;;45.28;21.42;;;;;;;0.05;74.97;98725.47;1750265;81;25815;-50
2021/01/28 15:12:48;;;;;;;39.00;20.55;;;;;;;0.04;74.85;98724.69;1754498;81;28062;-52
2021/01/28 15:15:17;;;;;;;39.63;21.07;;;;;;;0.02;75.40;98726.02;1758736;81;25672;-54
2021/01/28 15:17:47;;;;;;;35.68;19.98;;;;;;;-0.01;75.25;98722.84;1758957;81;25643;-50
2021/01/28 15:20:15;;;;;;;45.20;21.00;;;;;;;-0.01;75.47;98721.52;1758538;81;26320;-50
2021/01/28 15:22:42;;;;;;;40.73;21.20;;;;;;;-0.01;75.64;98720.19;1758919;81;25620;-53
2021/01/28 15:25:09;;;;;;;38.80;19.75;;;;;;;0.02;75.87;98718.04;1758669;81;25795;-53
2021/01/28 15:27:37;;;;;;;39.18;20.27;;;;;;;0.04;76.01;98718.58;1758844;81;25622;-50
2021/01/28 15:30:07;;;;;;;37.60;20.08;;;;;;;0.04;76.05;98709.27;1758948;81;25604;-51
2021/01/28 15:32:34;;;;;;;39.70;19.70;;;;;;;0.05;76.03;98709.52;1758809;81;25659;-53
2021/01/28 15:35:03;;;;;;;40.17;19.82;;;;;;;0.04;76.13;98697.31;1758690;81;25699;-52
2021/01/28 15:37:29;;;;;;;37.80;19.90;;;;;;;0.03;76.37;98689.06;1758424;81;26866;-54
2021/01/28 15:39:59;;;;;;;38.78;19.75;;;;;;;0.03;76.48;98689.06;1758988;81;25756;-52
2021/01/28 15:42:26;;;;;;;37.45;20.10;;;;;;;0.02;76.41;98695.44;1758828;81;25715;-53
2021/01/28 15:44:53;;;;;;;39.90;22.60;;;;;;;0.05;76.81;98687.73;1758778;81;25717;-53
2021/01/28 15:47:20;;;;;;;40.63;21.77;;;;;;;0.02;76.85;98684.30;1758816;81;25642;-53
2021/01/28 15:49:48;;;;;;;42.30;22.50;;;;;;;-0.01;77.04;98687.50;1758600;81;26793;-51
2021/01/28 15:52:15;;;;;;;38.98;20.85;;;;;;;-0.07;77.23;98689.42;1758807;81;25733;-49
2021/01/28 15:54:41;;;;;;;43.45;21.12;;;;;;;-0.07;77.27;98686.76;1758597;81;25680;-53
2021/01/28 15:57:08;;;;;;;50.52;22.05;;;;;;;-0.10;77.28;98680.66;1758727;81;25725;-50
2021/01/28 15:59:38;;;;;;;42.65;20.88;;;;;;;-0.06;77.71;98676.91;1759065;81;25655;-55
2021/01/28 16:02:05;;;;;;;45.85;23.00;;;;;;;-0.07;77.70;98676.13;1758882;81;25699;-52
2021/01/28 16:04:32;;;;;;;45.17;22.60;;;;;;;-0.08;77.80;98667.10;1758312;81;25691;-52
2021/01/28 16:06:59;;;;;;;46.83;23.70;;;;;;;-0.07;77.78;98671.33;1758647;81;25744;-50
2021/01/28 16:09:26;;;;;;;51.83;23.38;;;;;;;-0.08;78.08;98665.77;1758520;81;25797;-55
2021/01/28 16:11:52;;;;;;;50.67;24.25;;;;;;;-0.10;78.11;98658.59;1758682;81;26044;-52
2021/01/28 16:14:20;;;;;;;48.75;23.67;;;;;;;-0.07;78.54;98662.84;1750427;81;28057;-51
2021/01/28 16:16:47;;;;;;;44.13;23.98;;;;;;;-0.04;78.44;98665.46;1750036;81;25583;-53
2021/01/28 16:19:17;;;;;;;43.92;23.67;;;;;;;-0.01;78.69;98662.25;1749992;81;25651;-52
2021/01/28 16:21:45;;;;;;;47.70;24.50;;;;;;;0.02;78.69;98656.89;1749730;81;26401;-52
2021/01/28 16:24:12;;;;;;;48.75;24.35;;;;;;;0.04;78.56;98652.12;1750162;81;25772;-49
2021/01/28 16:26:41;;;;;;;42.20;21.93;;;;;;;0.07;78.73;98652.86;1750151;81;25886;-44
2021/01/28 16:29:10;;;;;;;41.63;22.00;;;;;;;0.06;78.99;98651.30;1750132;81;25751;-52
2021/01/28 16:31:37;;;;;;;45.30;22.10;;;;;;;0.02;78.90;98645.75;1749955;81;25651;-51
2021/01/28 16:34:05;;;;;;;48.08;24.47;;;;;;;-0.05;78.96;98639.42;1739321;80;26007;-49
2021/01/28 16:36:33;;;;;;;46.73;23.98;;;;;;;-0.04;79.01;98641.53;1748869;81;25309;-51
2021/01/28 16:39:00;;;;;;;54.65;26.35;;;;;;;-0.04;79.16;98635.67;1748334;81;26426;-54
2021/01/28 16:41:37;;;;;;;53.75;26.82;;;;;;;-0.03;79.26;98635.95;1748434;81;26282;-47
2021/01/28 16:44:13;;;;;;;53.38;26.12;;;;;;;0.00;79.33;98642.58;1749014;81;25798;-51
2021/01/28 16:46:43;;;;;;;54.33;26.10;;;;;;;-0.02;79.43;98638.88;1748710;81;25757;-47
2021/01/28 16:49:10;;;;;;;53.75;26.25;;;;;;;0.01;80.18;98642.03;1748858;81;25751;-49
2021/01/28 16:51:38;;;;;;;50.45;26.87;;;;;;;-0.02;79.53;98634.88;1749243;81;26003;-53
2021/01/28 16:54:07;;;;;;;49.20;26.73;;;;;;;-0.02;79.79;98632.73;1748327;81;25876;-50
2021/01/28 16:56:34;;;;;;;57.38;29.32;;;;;;;-0.04;79.81;98631.69;1748979;81;25842;-52
2021/01/28 16:59:01;;;;;;;55.10;25.85;;;;;;;-0.04;79.94;98626.91;1748881;81;25870;-50
2021/01/28 17:01:29;;;;;;;51.85;27.17;;;;;;;-0.05;79.82;98627.97;1748789;81;25725;-52
2021/01/28 17:03:57;;;;;;;55.17;26.93;;;;;;;-0.06;79.92;98619.77;1749248;81;26695;-53
2021/01/28 17:06:24;;;;;;;57.15;29.27;;;;;;;-0.03;80.03;98623.98;1748992;81;25823;-53
2021/01/28 17:08:51;;;;;;;58.45;28.40;;;;;;;0.02;80.25;98625.00;1748797;81;26310;-51
2021/01/28 17:11:18;;;;;;;60.03;30.45;;;;;;;0.09;80.48;98620.95;1749149;81;25768;-55
2021/01/28 17:13:44;;;;;;;55.67;28.60;;;;;;;0.15;80.29;98625.67;1753730;81;26148;-53
2021/01/28 17:16:11;;;;;;;54.38;28.42;;;;;;;0.19;80.30;98620.06;1757608;81;26648;-53
2021/01/28 17:18:38;;;;;;;56.92;30.08;;;;;;;0.20;80.18;98617.65;1757811;81;25889;-50
2021/01/28 17:21:05;;;;;;;55.80;29.67;;;;;;;0.24;80.41;98617.36;1757652;81;25722;-54
2021/01/28 17:23:35;;;;;;;63.52;33.00;;;;;;;0.28;80.29;98608.27;1757294;81;25862;-55
2021/01/28 17:26:03;;;;;;;60.95;31.52;;;;;;;0.28;80.30;98613.05;1757656;81;25750;-53
2021/01/28 17:28:30;;;;;;;63.80;31.75;;;;;;;0.26;80.28;98605.90;1757332;81;26673;-51
2021/01/28 17:30:59;;;;;;;54.25;30.12;;;;;;;0.27;80.20;98612.00;1757495;81;25859;-53
2021/01/28 17:33:26;;;;;;;;;;;;;;;0.25;80.25;98606.95;1736119;81;29997;-51
2021/01/28 17:35:53;;;;;;;60.30;30.52;;;;;;;0.27;80.49;98614.11;1725146;83;25716;-47
2021/01/28 17:38:20;;;;;;;64.03;31.62;;;;;;;0.27;80.57;98614.66;1725464;82;25802;-51
2021/01/28 17:40:47;;;;;;;66.90;33.50;;;;;;;0.27;80.54;98608.01;1724940;82;25988;-55
2021/01/28 17:43:15;;;;;;;60.33;30.82;;;;;;;0.27;80.74;98607.47;1716681;83;25956;-54
2021/01/28 17:45:42;;;;;;;58.45;31.40;;;;;;;0.28;80.60;98609.61;1696310;84;25737;-53
2021/01/28 17:48:11;;;;;;;58.90;31.65;;;;;;;0.30;80.65;98608.23;1696278;84;25756;-56
2021/01/28 17:50:38;;;;;;;64.67;32.10;;;;;;;0.33;80.60;98608.22;1696600;84;25723;-57
2021/01/28 17:53:06;;;;;;;67.05;34.43;;;;;;;0.35;80.69;98607.39;1696234;84;27296;-55
2021/01/28 17:55:34;;;;;;;65.78;33.02;;;;;;;0.40;80.80;98601.23;1696136;84;25770;-56
2021/01/28 17:58:02;;;;;;;70.12;37.23;;;;;;;0.46;80.96;98601.42;1696320;84;25769;-55
2021/01/28 18:00:33;;;;;;;63.52;31.60;;;;;;;0.47;80.92;98602.47;1696123;84;25936;-55
2021/01/28 18:03:00;;;;;;;69.15;33.18;;;;;;;0.53;80.91;98600.02;1696295;84;25785;-55
2021/01/28 18:05:30;;;;;;;63.90;34.50;;;;;;;0.59;80.96;98594.64;1696452;84;26727;-55
2021/01/28 18:07:58;;;;;;;;;;;;;;;0.64;80.90;98592.70;1698788;84;25827;-52
2021/01/28 18:10:26;;;;;;;70.30;35.15;;;;;;;0.67;80.93;98596.13;1696410;84;25812;-56
2021/01/28 18:12:54;;;;;;;65.17;35.30;;;;;;;0.68;80.99;98595.06;1696076;84;25884;-57
2021/01/28 18:15:26;;;;;;;64.80;34.45;;;;;;;0.69;80.97;98590.52;1696303;84;25677;-56
2021/01/28 18:17:53;;;;;;;61.50;32.90;;;;;;;0.67;81.02;98584.15;1696221;84;25771;-55
2021/01/28 18:20:21;;;;;;;68.00;34.35;;;;;;;0.67;80.92;98590.80;1696168;84;25706;-55
2021/01/28 18:22:49;;;;;;;70.47;36.00;;;;;;;0.66;80.96;98597.19;1696363;84;26071;-58
2021/01/28 18:25:22;;;;;;;69.25;34.65;;;;;;;0.66;81.12;98587.88;1696483;84;25703;-55
2021/01/28 18:27:50;;;;;;;68.50;34.95;;;;;;;0.60;80.86;98586.38;1696313;84;25628;-53
2021/01/28 18:30:18;;;;;;;80.77;39.48;;;;;;;0.68;81.00;98595.58;1696191;84;26371;-55
2021/01/28 18:32:46;;;;;;;71.05;36.83;;;;;;;0.70;81.04;98593.45;1684623;84;25975;-54
2021/01/28 18:35:13;;;;;;;63.70;34.45;;;;;;;0.72;81.05;98596.06;1666831;85;26296;-57
2021/01/28 18:37:40;;;;;;;63.25;32.28;;;;;;;0.74;81.12;98601.10;1666800;84;25970;-56
2021/01/28 18:40:10;;;;;;;72.65;34.30;;;;;;;0.71;81.05;98589.14;1666969;84;25765;-54
2021/01/28 18:42:37;;;;;;;63.10;30.72;;;;;;;0.72;81.06;98597.94;1666734;86;26300;-56
2021/01/28 18:45:12;;;;;;;61.60;30.85;;;;;;;0.71;81.10;98596.34;1667124;84;25786;-56
2021/01/28 18:47:39;;;;;;;63.05;31.45;;;;;;;0.73;81.44;98593.66;1666975;85;25779;-54
2021/01/28 18:50:08;;;;;;;58.13;29.52;;;;;;;0.73;81.20;98591.52;1667026;85;26324;-54
2021/01/28 18:52:37;;;;;;;57.65;31.15;;;;;;;0.75;81.20;98588.06;1666771;86;25781;-51
2021/01/28 18:55:13;;;;;;;55.30;30.12;;;;;;;0.79;81.14;98589.61;1667096;84;27160;-48
2021/01/28 18:57:42;;;;;;;62.05;31.20;;;;;;;0.80;81.11;98583.19;1666877;86;25760;-52
2021/01/28 19:00:17;;;;;;;60.23;32.63;;;;;;;0.81;81.14;98584.78;1666467;85;26687;-56
2021/01/28 19:02:44;;;;;;;67.75;33.20;;;;;;;0.79;81.04;98582.41;1666945;86;25769;-55